Douglas, NE (68344)

3:29 AM CDT on July 31, 2016 (GMT -0500)
Kosiba Home | | Change Station

Elev 1119 ft 40.63 °N, 96.22 °W | Updated 6 seconds ago

Clear
Clear
66.0 °F
Feels Like 66.0 °F
N
1.1
Wind Variable Wind from WNW

Today
High -- | Low -- °F
--% Chance of Precip.
Yesterday
High -- | Low -- °F
Precip. -- in
Pressure 29.90 in
Visibility 10.0 miles
Clouds Clear
Dew Point 65 °F
Humidity 98%
Rainfall 0.00 in
Snow Depth Not available.
6:22 AM 8:41 PM
Waning Crescent, 8% visible
METAR KLNK 310754Z AUTO 15007KT 10SM CLR 22/20 A2993 RMK AO2 SLP125 T02220200
Pressure 29.90 in
Visibility 10.0 miles
Clouds Clear
Dew Point 65 °F
Humidity 98%
Rainfall 0.00 in
Snow Depth Not available.
6:22 AM 8:41 PM
Waning Crescent, 8% visible
METAR KLNK 310754Z AUTO 15007KT 10SM CLR 22/20 A2993 RMK AO2 SLP125 T02220200

10-Day Weather Forecast

Almanac

Astronomy

Jul. 31, 2016 Rise Set
Actual Time
Civil Twilight
Nautical Twilight
Astronomical Twilight
Moon
Length of Visible Light
Length of Day
Tomorrow will be .
, % of the Moon is Illuminated

Today's Extremes

State Highs State Lows

Community

WunderPhotos

Upload Photos

1,928,768 photos uploaded!

WunderBlog® & News

Nearby

Air Quality

  Air Quality AQ Index Pollutant
Not available.

Snow Depth

Station Depth Elevation

Earthquake Activity

City Distance Mag. Time & Date
Minimum magnitude displayed is 2.5.

Coastal Water Temperatures

Place Temperature

Stations

Nearby Weather Stations

Station Location Temp. Windchill Dew Point Humidity Wind Precip. Elev Updated Type
                   

Watches & Warnings

There are currently no watches in effect.